createdAt,value
2023-10-26T00:02:08.235Z,88.65
2023-10-26T00:04:34.790Z,88.49
2023-10-26T00:07:01.925Z,87.62
2023-10-26T00:09:28.440Z,88.92
2023-10-26T00:11:54.987Z,88.55
2023-10-26T00:14:21.548Z,88.77
2023-10-26T00:16:47.970Z,89.47
2023-10-26T00:19:14.446Z,88.75
2023-10-26T00:21:41.843Z,88.27
2023-10-26T00:24:09.053Z,88.59
2023-10-26T00:26:35.497Z,89.07
2023-10-26T00:29:01.891Z,88.20
2023-10-26T00:31:28.272Z,88.28
2023-10-26T00:33:55.012Z,87.88
2023-10-26T00:36:21.465Z,88.00
2023-10-26T00:38:47.942Z,87.75
2023-10-26T00:41:14.314Z,90.04
2023-10-26T00:43:40.698Z,88.86
2023-10-26T00:46:11.677Z,88.52
2023-10-26T00:48:38.970Z,88.16
2023-10-26T00:51:06.742Z,89.01
2023-10-26T00:53:34.596Z,88.82
2023-10-26T00:56:01.250Z,88.59
2023-10-26T00:58:30.193Z,89.00
2023-10-26T01:00:56.893Z,87.41
2023-10-26T01:03:25.260Z,88.78
2023-10-26T01:05:51.734Z,88.35
2023-10-26T01:08:19.478Z,87.28
2023-10-26T01:10:47.438Z,87.84
2023-10-26T01:13:14.295Z,89.76
2023-10-26T01:15:40.819Z,89.20
2023-10-26T01:18:07.386Z,89.22
2023-10-26T01:20:33.983Z,88.05
2023-10-26T01:23:00.471Z,88.63
2023-10-26T01:25:26.910Z,90.13
2023-10-26T01:27:53.325Z,89.46
2023-10-26T01:30:19.887Z,89.80
2023-10-26T01:32:46.446Z,90.24
2023-10-26T01:35:12.962Z,89.53
2023-10-26T01:37:40.316Z,90.03
2023-10-26T01:40:08.974Z,88.18
2023-10-26T01:42:36.762Z,89.41
2023-10-26T01:45:03.625Z,89.32
2023-10-26T01:47:30.130Z,89.27
2023-10-26T01:49:56.592Z,88.39
2023-10-26T01:52:23.100Z,90.17
2023-10-26T01:54:50.659Z,89.23
2023-10-26T01:57:18.250Z,88.52
2023-10-26T01:59:44.720Z,88.94
2023-10-26T02:02:11.135Z,89.93
2023-10-26T02:04:37.844Z,89.48
2023-10-26T02:07:05.086Z,87.96
2023-10-26T02:09:31.564Z,88.43
2023-10-26T02:11:58.321Z,89.79
2023-10-26T02:14:24.728Z,90.13
2023-10-26T02:16:51.200Z,87.78
2023-10-26T02:19:19.075Z,89.76
2023-10-26T02:21:46.071Z,88.11
2023-10-26T02:24:12.603Z,87.84
2023-10-26T02:26:39.006Z,89.29
2023-10-26T02:29:05.550Z,88.25
2023-10-26T02:31:32.002Z,88.92
2023-10-26T02:33:58.479Z,88.86
2023-10-26T02:36:24.999Z,88.38
2023-10-26T02:38:51.462Z,89.06
2023-10-26T02:41:18.031Z,88.94
2023-10-26T02:43:45.754Z,88.86
2023-10-26T02:46:12.267Z,89.92
2023-10-26T02:48:38.914Z,89.64
2023-10-26T02:51:06.473Z,88.26
2023-10-26T02:53:33.374Z,90.05
2023-10-26T02:55:59.782Z,89.83
2023-10-26T02:58:26.195Z,90.38
2023-10-26T03:00:56.202Z,88.98
2023-10-26T03:03:23.562Z,89.53
2023-10-26T03:05:51.802Z,89.16
2023-10-26T03:08:18.262Z,88.68
2023-10-26T03:10:45.027Z,88.22
2023-10-26T03:13:12.716Z,88.24
2023-10-26T03:15:39.117Z,88.04
2023-10-26T03:18:05.668Z,88.99
2023-10-26T03:20:32.852Z,88.65
2023-10-26T03:22:59.611Z,88.04
2023-10-26T03:25:26.208Z,88.72
2023-10-26T03:27:52.647Z,88.74
2023-10-26T03:30:19.358Z,89.72
2023-10-26T03:32:47.120Z,88.89
2023-10-26T03:35:13.561Z,88.44
2023-10-26T03:37:41.049Z,88.39
2023-10-26T03:40:07.962Z,88.51
2023-10-26T03:42:34.797Z,89.33
2023-10-26T03:45:02.406Z,87.74
2023-10-26T03:47:28.886Z,88.89
2023-10-26T03:49:55.342Z,88.06
2023-10-26T03:52:23.068Z,90.16
2023-10-26T03:54:50.786Z,89.73
2023-10-26T03:57:17.397Z,87.80
2023-10-26T03:59:44.167Z,88.61
2023-10-26T04:02:12.137Z,90.14
2023-10-26T04:04:39.419Z,89.41
2023-10-26T04:07:06.175Z,88.79
2023-10-26T04:09:32.704Z,90.42
2023-10-26T04:11:59.251Z,88.56
2023-10-26T04:14:26.902Z,89.93
2023-10-26T04:16:53.600Z,90.41
2023-10-26T04:19:20.013Z,90.37
2023-10-26T04:21:46.444Z,89.69
2023-10-26T04:24:12.914Z,90.49
2023-10-26T04:26:39.352Z,89.98
2023-10-26T04:29:07.604Z,90.89
2023-10-26T04:31:35.158Z,91.30
2023-10-26T04:34:01.608Z,89.85
2023-10-26T04:36:28.114Z,91.07
2023-10-26T04:38:54.679Z,90.77
2023-10-26T04:41:21.148Z,91.82
2023-10-26T04:43:47.852Z,91.35
2023-10-26T04:46:14.313Z,91.66
2023-10-26T04:48:41.229Z,91.63
2023-10-26T04:51:09.598Z,91.27
2023-10-26T04:53:36.050Z,91.03
2023-10-26T04:56:03.183Z,91.96
2023-10-26T04:58:29.642Z,91.67
2023-10-26T05:00:56.089Z,91.42
2023-10-26T05:03:22.509Z,92.92
2023-10-26T05:05:48.928Z,92.89
2023-10-26T05:08:15.331Z,92.78
2023-10-26T05:10:42.518Z,93.07
2023-10-26T05:13:11.429Z,92.02
2023-10-26T05:15:37.935Z,92.31
2023-10-26T05:18:05.010Z,93.43
2023-10-26T05:20:33.936Z,92.71
2023-10-26T05:23:01.300Z,93.31
2023-10-26T05:25:27.989Z,92.04
2023-10-26T05:27:54.503Z,92.73
2023-10-26T05:30:21.129Z,92.11
2023-10-26T05:32:47.592Z,91.79
2023-10-26T05:35:15.169Z,93.14
2023-10-26T05:37:41.606Z,92.36
2023-10-26T05:40:09.594Z,93.27
2023-10-26T05:42:36.382Z,92.96
2023-10-26T05:45:03.006Z,92.96
2023-10-26T05:47:29.449Z,92.34
2023-10-26T05:49:56.098Z,92.86
2023-10-26T05:52:22.512Z,91.75
2023-10-26T05:54:49.147Z,93.29
2023-10-26T05:57:15.598Z,91.99
2023-10-26T05:59:42.117Z,92.51
2023-10-26T06:02:08.481Z,91.49
2023-10-26T06:04:34.938Z,92.46
2023-10-26T06:07:02.442Z,92.77
2023-10-26T06:09:28.915Z,91.15
2023-10-26T06:11:55.323Z,91.83
2023-10-26T06:14:21.783Z,92.05
2023-10-26T06:16:48.368Z,93.15
2023-10-26T06:19:14.755Z,93.13
2023-10-26T06:21:41.175Z,92.38
2023-10-26T06:24:08.131Z,92.66
2023-10-26T06:26:34.709Z,91.69
2023-10-26T06:29:01.101Z,92.07
2023-10-26T06:31:27.664Z,92.02
2023-10-26T06:33:54.115Z,92.13
2023-10-26T06:36:20.542Z,92.41
2023-10-26T06:38:47.046Z,93.53
2023-10-26T06:41:13.450Z,92.88
2023-10-26T06:43:40.096Z,93.15
2023-10-26T06:46:06.639Z,90.87
2023-10-26T06:48:33.280Z,91.33
2023-10-26T06:51:04.164Z,91.14
2023-10-26T06:53:30.848Z,91.59
2023-10-26T06:55:58.578Z,90.91
2023-10-26T06:58:25.100Z,91.31
2023-10-26T07:00:53.236Z,92.09
2023-10-26T07:03:20.894Z,91.35
2023-10-26T07:05:49.100Z,92.41
2023-10-26T07:08:15.860Z,91.25
2023-10-26T07:10:42.509Z,91.70
2023-10-26T07:13:09.469Z,90.97
2023-10-26T07:15:37.352Z,91.78
2023-10-26T07:18:05.222Z,92.07
2023-10-26T07:20:31.920Z,91.19
2023-10-26T07:22:58.323Z,91.37
2023-10-26T07:25:24.749Z,91.70
2023-10-26T07:27:51.265Z,90.53
2023-10-26T07:30:17.883Z,91.49
2023-10-26T07:32:44.420Z,92.17
2023-10-26T07:35:10.963Z,91.53
2023-10-26T07:37:38.559Z,90.28
2023-10-26T07:40:25.569Z,91.10
2023-10-26T07:42:53.096Z,91.44
2023-10-26T07:45:19.828Z,91.15
2023-10-26T07:47:46.357Z,91.27
2023-10-26T07:50:12.944Z,89.65
2023-10-26T07:52:39.443Z,90.61
2023-10-26T07:55:06.393Z,89.81
2023-10-26T07:57:33.044Z,89.42
2023-10-26T07:59:59.508Z,89.45
2023-10-26T08:02:26.024Z,90.13
2023-10-26T08:04:52.588Z,89.76
2023-10-26T08:07:21.925Z,89.15
2023-10-26T08:09:49.380Z,89.12
2023-10-26T08:12:15.838Z,89.76
2023-10-26T08:16:09.477Z,89.70
2023-10-26T08:17:30.033Z,88.33
2023-10-26T08:19:58.409Z,88.65
2023-10-26T08:22:25.014Z,88.73
2023-10-26T08:24:51.440Z,88.82
2023-10-26T08:27:17.890Z,87.57
2023-10-26T08:29:44.451Z,87.98
2023-10-26T08:32:11.142Z,88.66
2023-10-26T08:34:38.292Z,87.40
2023-10-26T08:39:34.068Z,86.91
2023-10-26T08:42:02.726Z,86.41
2023-10-26T08:44:29.757Z,86.82
2023-10-26T08:47:18.640Z,87.10
2023-10-26T08:49:55.908Z,86.35
2023-10-26T08:52:26.190Z,87.73
2023-10-26T08:54:52.608Z,87.61
2023-10-26T08:57:19.019Z,87.50
2023-10-26T08:59:45.415Z,86.00
2023-10-26T09:02:11.930Z,87.44
2023-10-26T09:04:38.562Z,87.61
2023-10-26T09:07:05.064Z,86.37
2023-10-26T09:09:44.390Z,86.43
2023-10-26T09:12:11.804Z,86.87
2023-10-26T09:14:39.102Z,87.00
2023-10-26T09:17:05.650Z,85.87
2023-10-26T09:19:39.080Z,85.48
2023-10-26T09:22:08.552Z,84.96
2023-10-26T09:24:34.918Z,86.43
2023-10-26T09:27:01.722Z,85.71
2023-10-26T09:29:41.731Z,85.47
2023-10-26T09:32:09.907Z,85.10
2023-10-26T09:34:44.356Z,85.46
2023-10-26T09:37:13.678Z,85.56
2023-10-26T09:39:43.885Z,85.70
2023-10-26T09:42:12.353Z,86.04
2023-10-26T09:44:39.584Z,85.54
2023-10-26T09:47:07.598Z,85.46
2023-10-26T09:49:34.368Z,83.75
2023-10-26T09:52:00.808Z,83.37
2023-10-26T09:54:38.940Z,82.44
2023-10-26T09:57:14.594Z,83.65
2023-10-26T09:59:41.133Z,83.34
2023-10-26T10:02:17.118Z,82.34
2023-10-26T10:04:45.312Z,80.82
2023-10-26T10:07:50.111Z,81.45
2023-10-26T10:10:16.669Z,82.79
2023-10-26T10:12:52.539Z,81.00
2023-10-26T10:15:41.922Z,79.52
2023-10-26T10:18:10.071Z,79.73
2023-10-26T10:20:38.415Z,79.47
2023-10-26T10:23:05.481Z,79.82
2023-10-26T10:25:50.259Z,78.13
2023-10-26T10:28:17.867Z,77.96
2023-10-26T10:30:57.304Z,77.84
2023-10-26T10:33:26.157Z,78.07
2023-10-26T10:36:01.731Z,78.65
2023-10-26T10:38:29.640Z,80.19
2023-10-26T10:40:56.080Z,79.70
2023-10-26T10:43:44.821Z,78.18
2023-10-26T10:46:21.494Z,77.98
2023-10-26T10:49:08.194Z,79.06
2023-10-26T10:51:42.375Z,79.09
2023-10-26T10:54:22.362Z,79.40
2023-10-26T10:56:57.003Z,79.14
2023-10-26T10:59:26.957Z,78.33
2023-10-26T11:02:09.645Z,79.86
2023-10-26T11:04:48.045Z,79.37
2023-10-26T11:07:18.004Z,79.25
2023-10-26T11:09:46.685Z,80.55
2023-10-26T11:12:13.526Z,81.30
2023-10-26T11:14:53.929Z,80.70
2023-10-26T11:17:22.026Z,80.15
2023-10-26T11:19:49.666Z,80.68
2023-10-26T11:22:17.055Z,80.14
2023-10-26T11:24:44.535Z,79.93
2023-10-26T11:27:12.134Z,81.11
2023-10-26T11:29:38.788Z,80.60
2023-10-26T11:32:18.440Z,80.78
2023-10-26T11:35:04.493Z,81.02
2023-10-26T11:37:31.161Z,80.34
2023-10-26T11:39:57.585Z,78.89
2023-10-26T11:43:02.168Z,79.97
2023-10-26T11:45:29.323Z,80.88
2023-10-26T11:48:03.054Z,81.21
2023-10-26T11:50:31.667Z,81.29
2023-10-26T11:53:01.195Z,81.66
2023-10-26T11:55:31.006Z,82.12
2023-10-26T11:57:59.604Z,82.90
2023-10-26T12:00:27.977Z,81.43
2023-10-26T12:02:58.926Z,80.60
2023-10-26T12:05:27.211Z,80.80
2023-10-26T12:07:54.400Z,78.57
2023-10-26T12:10:22.421Z,75.84
2023-10-26T12:12:52.233Z,77.17
2023-10-26T12:15:20.246Z,77.18
2023-10-26T12:17:47.201Z,74.44
2023-10-26T12:20:14.912Z,75.78
2023-10-26T12:22:41.932Z,75.75
2023-10-26T12:25:09.350Z,75.82
2023-10-26T12:28:21.889Z,76.46
2023-10-26T12:30:22.534Z,78.31
2023-10-26T12:32:48.976Z,78.26
2023-10-26T12:35:15.434Z,78.57
2023-10-26T12:37:41.826Z,78.88
2023-10-26T12:40:09.292Z,79.53
2023-10-26T12:42:37.112Z,80.70
2023-10-26T12:45:04.118Z,79.37
2023-10-26T12:47:30.562Z,78.94
2023-10-26T12:49:56.979Z,79.82
2023-10-26T12:52:23.391Z,80.62
2023-10-26T12:54:49.864Z,81.14
2023-10-26T12:57:16.258Z,79.82
2023-10-26T12:59:42.641Z,79.61
2023-10-26T13:02:09.052Z,80.49
2023-10-26T13:04:35.511Z,80.90
2023-10-26T13:07:01.980Z,80.24
2023-10-26T13:09:29.501Z,81.68
2023-10-26T13:11:56.017Z,79.87
2023-10-26T13:14:22.480Z,80.45
2023-10-26T13:16:50.330Z,78.69
2023-10-26T13:19:24.458Z,79.57
2023-10-26T13:21:50.879Z,80.31
2023-10-26T13:24:17.506Z,79.69
2023-10-26T13:26:43.905Z,81.03
2023-10-26T13:29:10.311Z,81.62
2023-10-26T13:31:36.766Z,81.59
2023-10-26T13:34:03.523Z,81.64
2023-10-26T13:36:29.993Z,80.80
2023-10-26T13:38:57.491Z,81.73
2023-10-26T13:41:24.673Z,81.90
2023-10-26T13:43:52.031Z,80.42
2023-10-26T13:46:18.506Z,80.43
2023-10-26T13:48:44.960Z,79.59
2023-10-26T13:51:17.523Z,80.70
2023-10-26T13:53:43.989Z,80.80
2023-10-26T13:56:10.576Z,79.97
2023-10-26T13:58:36.989Z,80.87
2023-10-26T14:01:10.633Z,80.17
2023-10-26T14:03:37.084Z,80.51
2023-10-26T14:06:03.740Z,81.13
2023-10-26T14:08:31.275Z,80.90
2023-10-26T14:10:59.547Z,80.02
2023-10-26T14:13:26.064Z,82.40
2023-10-26T14:15:52.477Z,82.78
2023-10-26T14:18:18.873Z,83.70
2023-10-26T14:20:45.269Z,82.59
2023-10-26T14:23:11.635Z,81.29
2023-10-26T14:25:38.009Z,80.09
2023-10-26T14:28:04.641Z,80.88
2023-10-26T14:30:32.259Z,82.01
2023-10-26T14:32:58.804Z,81.17
2023-10-26T14:35:25.220Z,81.50
2023-10-26T14:37:51.708Z,83.35
2023-10-26T14:40:19.166Z,82.70
2023-10-26T14:42:46.358Z,81.18
2023-10-26T14:45:12.846Z,81.35
2023-10-26T14:47:39.332Z,81.44
2023-10-26T14:50:06.067Z,79.91
2023-10-26T14:52:32.470Z,80.85
2023-10-26T14:54:59.123Z,82.37
2023-10-26T14:57:25.498Z,80.41
2023-10-26T14:59:51.872Z,81.06
2023-10-26T15:02:18.264Z,81.80
2023-10-26T15:04:45.097Z,82.41
2023-10-26T15:07:11.768Z,80.77
2023-10-26T15:10:20.241Z,81.87
2023-10-26T15:12:25.773Z,82.02
2023-10-26T15:14:52.654Z,81.46
2023-10-26T15:17:25.713Z,80.93
2023-10-26T15:19:52.258Z,81.53
2023-10-26T15:22:18.657Z,82.41
2023-10-26T15:24:45.255Z,82.99
2023-10-26T15:27:12.397Z,83.03
2023-10-26T15:29:41.646Z,83.72
2023-10-26T15:32:08.041Z,82.97
2023-10-26T15:34:34.547Z,83.09
2023-10-26T15:37:01.050Z,83.03
2023-10-26T15:39:28.500Z,83.92
2023-10-26T15:41:55.483Z,82.76
2023-10-26T15:44:24.639Z,84.32
2023-10-26T15:46:51.048Z,82.51
2023-10-26T15:49:33.306Z,82.66
2023-10-26T15:52:02.327Z,83.10
2023-10-26T15:54:29.059Z,84.17
2023-10-26T15:56:55.474Z,83.32
2023-10-26T15:59:24.599Z,84.42
2023-10-26T16:01:51.130Z,83.82
2023-10-26T16:04:17.625Z,83.88
2023-10-26T16:06:46.573Z,83.25
2023-10-26T16:09:14.063Z,83.42
2023-10-26T16:11:40.558Z,85.09
2023-10-26T16:14:07.043Z,82.14
2023-10-26T16:16:33.690Z,83.89
2023-10-26T16:19:00.231Z,84.64
2023-10-26T16:21:26.647Z,85.13
2023-10-26T16:23:53.133Z,84.37
2023-10-26T16:26:19.552Z,84.73
2023-10-26T16:28:48.289Z,83.61
2023-10-26T16:31:16.360Z,83.55
2023-10-26T16:33:42.785Z,84.56
2023-10-26T16:36:09.202Z,83.26
2023-10-26T16:38:35.615Z,84.06
2023-10-26T16:41:01.988Z,84.63
2023-10-26T16:43:28.442Z,84.30
2023-10-26T16:45:56.998Z,84.50
2023-10-26T16:48:24.310Z,84.98
2023-10-26T16:50:51.171Z,85.65
2023-10-26T16:53:30.660Z,85.84
2023-10-26T16:56:03.888Z,84.81
2023-10-26T16:58:32.841Z,84.53
2023-10-26T17:00:59.931Z,84.02
2023-10-26T17:03:27.713Z,85.24
2023-10-26T17:05:54.130Z,85.79
2023-10-26T17:08:20.939Z,86.18
2023-10-26T17:10:49.530Z,85.87
2023-10-26T17:13:19.369Z,86.29
2023-10-26T17:15:46.127Z,85.74
2023-10-26T17:18:12.730Z,85.99
2023-10-26T17:20:39.418Z,87.18
2023-10-26T17:23:05.829Z,87.50
2023-10-26T17:25:36.164Z,85.80
2023-10-26T17:28:02.828Z,85.37
2023-10-26T17:30:29.951Z,85.44
2023-10-26T17:32:56.402Z,85.86
2023-10-26T17:35:22.853Z,86.66
2023-10-26T17:37:49.265Z,85.25
2023-10-26T17:40:15.717Z,86.27
2023-10-26T17:42:42.290Z,85.84
2023-10-26T17:45:09.248Z,86.19
2023-10-26T17:47:35.715Z,85.73
2023-10-26T17:50:02.150Z,87.05
2023-10-26T17:52:28.526Z,86.96
2023-10-26T17:54:55.132Z,86.87
2023-10-26T17:57:22.378Z,86.45
2023-10-26T17:59:48.811Z,85.08
2023-10-26T18:02:15.358Z,87.23
2023-10-26T18:04:41.935Z,87.38
2023-10-26T18:07:09.055Z,87.39
2023-10-26T18:09:37.623Z,86.59
2023-10-26T18:12:04.495Z,86.36
2023-10-26T18:14:30.873Z,88.07
2023-10-26T18:16:58.424Z,86.89
2023-10-26T18:19:24.963Z,88.25
2023-10-26T18:21:51.793Z,87.97
2023-10-26T18:24:18.256Z,88.01
2023-10-26T18:26:44.897Z,86.90
2023-10-26T18:29:11.272Z,87.41
2023-10-26T18:31:37.744Z,87.18
2023-10-26T18:34:04.546Z,86.56
2023-10-26T18:36:32.942Z,87.10
2023-10-26T18:38:59.839Z,87.60
2023-10-26T18:41:26.872Z,87.52
2023-10-26T18:43:54.377Z,86.92
2023-10-26T18:46:21.244Z,87.80
2023-10-26T18:48:47.838Z,88.17
2023-10-26T18:51:14.412Z,86.67
2023-10-26T18:53:41.966Z,86.75
2023-10-26T18:56:16.168Z,86.74
2023-10-26T18:58:43.272Z,86.33
2023-10-26T19:01:09.827Z,86.80
2023-10-26T19:03:43.120Z,88.46
2023-10-26T19:06:20.060Z,87.10
2023-10-26T19:08:46.532Z,87.11
2023-10-26T19:11:13.385Z,87.73
2023-10-26T19:13:40.393Z,88.51
2023-10-26T19:16:07.226Z,86.70
2023-10-26T19:18:34.635Z,87.17
2023-10-26T19:21:01.376Z,87.44
2023-10-26T19:23:27.881Z,87.23
2023-10-26T19:25:54.713Z,86.42
2023-10-26T19:28:22.462Z,87.44
2023-10-26T19:30:50.650Z,88.05
2023-10-26T19:33:17.316Z,87.01
2023-10-26T19:35:43.700Z,87.50
2023-10-26T19:38:10.143Z,88.20
2023-10-26T19:40:36.552Z,87.82
2023-10-26T19:43:02.976Z,87.56
2023-10-26T19:45:29.715Z,87.21
2023-10-26T19:47:56.348Z,88.37
2023-10-26T19:50:23.015Z,88.60
2023-10-26T19:52:49.420Z,88.42
2023-10-26T19:55:16.183Z,88.05
2023-10-26T19:57:42.657Z,88.37
2023-10-26T20:00:14.002Z,87.50
2023-10-26T20:02:40.470Z,88.23
2023-10-26T20:05:07.196Z,89.03
2023-10-26T20:07:33.624Z,89.07
2023-10-26T20:10:00.040Z,88.52
2023-10-26T20:12:26.601Z,87.60
2023-10-26T20:14:53.000Z,89.01
2023-10-26T20:17:19.371Z,88.68
2023-10-26T20:19:46.179Z,87.41
2023-10-26T20:22:12.919Z,87.84
2023-10-26T20:24:39.312Z,87.52
2023-10-26T20:27:05.804Z,87.63
2023-10-26T20:29:32.702Z,87.50
2023-10-26T20:31:59.159Z,88.08
2023-10-26T20:34:25.905Z,87.18
2023-10-26T20:36:52.567Z,88.43
2023-10-26T20:39:19.074Z,87.44
2023-10-26T20:41:45.558Z,87.63
2023-10-26T20:44:13.987Z,88.48
2023-10-26T20:46:40.407Z,87.25
2023-10-26T20:49:07.023Z,87.59
2023-10-26T20:51:34.914Z,88.21
2023-10-26T20:54:02.354Z,88.68
2023-10-26T20:56:28.841Z,87.61
2023-10-26T20:58:55.242Z,88.40
2023-10-26T21:01:21.877Z,88.01
2023-10-26T21:03:49.061Z,86.98
2023-10-26T21:06:16.546Z,88.17
2023-10-26T21:08:45.457Z,87.95
2023-10-26T21:11:16.638Z,87.99
2023-10-26T21:13:43.369Z,86.70
2023-10-26T21:16:09.951Z,87.30
2023-10-26T21:18:36.451Z,88.09
2023-10-26T21:21:07.813Z,87.40
2023-10-26T21:23:34.947Z,87.51
2023-10-26T21:26:09.330Z,86.67
2023-10-26T21:28:38.528Z,88.13
2023-10-26T21:31:05.306Z,86.88
2023-10-26T21:33:32.484Z,88.42
2023-10-26T21:35:58.964Z,86.44
2023-10-26T21:38:25.363Z,86.66
2023-10-26T21:40:51.858Z,86.94
2023-10-26T21:43:18.690Z,88.02
2023-10-26T21:45:45.269Z,86.59
2023-10-26T21:48:13.690Z,86.45
2023-10-26T21:50:40.257Z,87.43
2023-10-26T21:53:06.848Z,88.27
2023-10-26T21:55:35.494Z,87.72
2023-10-26T21:58:02.135Z,87.61
2023-10-26T22:00:29.338Z,88.44
2023-10-26T22:02:56.679Z,87.77
2023-10-26T22:05:23.574Z,88.77
2023-10-26T22:07:51.216Z,87.75
2023-10-26T22:10:18.676Z,87.99
2023-10-26T22:12:45.342Z,87.09
2023-10-26T22:15:13.710Z,88.05
2023-10-26T22:17:43.743Z,88.89
2023-10-26T22:20:10.943Z,89.27
2023-10-26T22:22:38.156Z,89.04
2023-10-26T22:25:05.167Z,88.30
2023-10-26T22:27:32.216Z,87.64
2023-10-26T22:29:59.112Z,89.33
2023-10-26T22:32:25.684Z,88.84
2023-10-26T22:34:52.454Z,88.54
2023-10-26T22:37:19.902Z,89.20
2023-10-26T22:39:46.877Z,89.39
2023-10-26T22:42:13.743Z,88.74
2023-10-26T22:44:40.138Z,89.65
2023-10-26T22:47:08.202Z,90.18
2023-10-26T22:49:35.016Z,88.83
2023-10-26T22:52:01.717Z,89.77
2023-10-26T22:54:28.419Z,90.32
2023-10-26T22:56:54.816Z,90.83
2023-10-26T22:59:21.732Z,90.59
2023-10-26T23:01:48.696Z,89.52
2023-10-26T23:04:15.679Z,90.00
2023-10-26T23:06:42.314Z,90.82
2023-10-26T23:09:10.076Z,89.81
2023-10-26T23:11:36.578Z,90.45
2023-10-26T23:14:03.091Z,89.15
2023-10-26T23:16:29.589Z,90.21
2023-10-26T23:18:56.889Z,89.13
2023-10-26T23:21:23.527Z,88.74
2023-10-26T23:23:49.921Z,90.00
2023-10-26T23:26:16.391Z,90.04
2023-10-26T23:28:42.797Z,89.56
2023-10-26T23:31:12.534Z,89.17
2023-10-26T23:33:39.418Z,89.53
2023-10-26T23:36:10.352Z,90.80
2023-10-26T23:38:36.976Z,90.29
2023-10-26T23:41:03.609Z,89.58
2023-10-26T23:43:30.043Z,89.43
2023-10-26T23:45:58.759Z,89.04
2023-10-26T23:48:25.666Z,89.63
2023-10-26T23:50:52.111Z,88.65
2023-10-26T23:53:19.347Z,89.68
2023-10-26T23:55:46.212Z,88.82
2023-10-26T23:58:12.945Z,88.63
